sensor_id;sensor_type;location;lat;lon;timestamp;pressure;altitude;pressure_sealevel;temperature;humidity
2188;BME280;1100;52.014;8.540;2023-04-25T00:01:03;99338.50;;;4.79;84.83
2188;BME280;1100;52.014;8.540;2023-04-25T00:03:30;99331.78;;;4.80;85.12
2188;BME280;1100;52.014;8.540;2023-04-25T00:05:57;99336.13;;;4.81;84.70
2188;BME280;1100;52.014;8.540;2023-04-25T00:08:22;99338.50;;;4.79;84.73
2188;BME280;1100;52.014;8.540;2023-04-25T00:10:48;99335.38;;;4.77;84.93
2188;BME280;1100;52.014;8.540;2023-04-25T00:13:14;99339.34;;;4.76;85.19
2188;BME280;1100;52.014;8.540;2023-04-25T00:15:39;99346.03;;;4.75;84.95
2188;BME280;1100;52.014;8.540;2023-04-25T00:18:06;99344.88;;;4.72;84.98
2188;BME280;1100;52.014;8.540;2023-04-25T00:20:32;99349.25;;;4.70;84.92
2188;BME280;1100;52.014;8.540;2023-04-25T00:22:57;99348.19;;;4.64;84.96
2188;BME280;1100;52.014;8.540;2023-04-25T00:25:22;99350.63;;;4.58;84.75
2188;BME280;1100;52.014;8.540;2023-04-25T00:27:48;99348.38;;;4.49;84.83
2188;BME280;1100;52.014;8.540;2023-04-25T00:30:14;99344.53;;;4.43;85.38
2188;BME280;1100;52.014;8.540;2023-04-25T00:32:39;99349.31;;;4.39;85.42
2188;BME280;1100;52.014;8.540;2023-04-25T00:35:04;99347.41;;;4.35;85.63
2188;BME280;1100;52.014;8.540;2023-04-25T00:37:30;99348.66;;;4.31;85.68
2188;BME280;1100;52.014;8.540;2023-04-25T00:39:57;99347.84;;;4.30;85.42
2188;BME280;1100;52.014;8.540;2023-04-25T00:42:23;99348.66;;;4.31;85.81
2188;BME280;1100;52.014;8.540;2023-04-25T00:44:49;99344.34;;;4.30;85.77
2188;BME280;1100;52.014;8.540;2023-04-25T00:47:15;99340.81;;;4.29;85.49
2188;BME280;1100;52.014;8.540;2023-04-25T00:49:40;99342.72;;;4.32;85.83
2188;BME280;1100;52.014;8.540;2023-04-25T00:52:06;99340.75;;;4.33;85.88
2188;BME280;1100;52.014;8.540;2023-04-25T00:54:31;99339.97;;;4.32;86.03
2188;BME280;1100;52.014;8.540;2023-04-25T00:56:57;99337.59;;;4.34;86.03
2188;BME280;1100;52.014;8.540;2023-04-25T00:59:22;99339.16;;;4.35;85.81
2188;BME280;1100;52.014;8.540;2023-04-25T01:01:49;99335.19;;;4.36;85.90
2188;BME280;1100;52.014;8.540;2023-04-25T01:04:14;99338.00;;;4.33;86.04
2188;BME280;1100;52.014;8.540;2023-04-25T01:06:40;99336.03;;;4.33;86.52
2188;BME280;1100;52.014;8.540;2023-04-25T01:09:05;99340.00;;;4.29;86.61
2188;BME280;1100;52.014;8.540;2023-04-25T01:11:32;99333.38;;;4.26;86.12
2188;BME280;1100;52.014;8.540;2023-04-25T01:13:57;99345.22;;;4.23;85.89
2188;BME280;1100;52.014;8.540;2023-04-25T01:16:23;99339.34;;;4.21;86.13
2188;BME280;1100;52.014;8.540;2023-04-25T01:18:49;99344.00;;;4.24;86.46
2188;BME280;1100;52.014;8.540;2023-04-25T01:21:15;99337.34;;;4.25;86.28
2188;BME280;1100;52.014;8.540;2023-04-25T01:23:41;99335.75;;;4.24;86.61
2188;BME280;1100;52.014;8.540;2023-04-25T01:26:09;99335.41;;;4.22;86.60
2188;BME280;1100;52.014;8.540;2023-04-25T01:28:35;99334.22;;;4.23;86.34
2188;BME280;1100;52.014;8.540;2023-04-25T01:31:01;99333.06;;;4.20;86.32
2188;BME280;1100;52.014;8.540;2023-04-25T01:33:26;99329.50;;;4.23;86.55
2188;BME280;1100;52.014;8.540;2023-04-25T01:35:52;99335.34;;;4.26;86.69
2188;BME280;1100;52.014;8.540;2023-04-25T01:38:18;99340.91;;;4.22;86.55
2188;BME280;1100;52.014;8.540;2023-04-25T01:40:45;99333.41;;;4.22;86.53
2188;BME280;1100;52.014;8.540;2023-04-25T01:43:10;99339.75;;;4.19;86.57
2188;BME280;1100;52.014;8.540;2023-04-25T01:45:41;99340.94;;;4.18;86.65
2188;BME280;1100;52.014;8.540;2023-04-25T01:48:13;99350.81;;;4.16;86.95
2188;BME280;1100;52.014;8.540;2023-04-25T01:50:40;99351.22;;;4.14;87.12
2188;BME280;1100;52.014;8.540;2023-04-25T01:53:05;99354.31;;;4.16;86.65
2188;BME280;1100;52.014;8.540;2023-04-25T01:55:31;99360.22;;;4.18;86.95
2188;BME280;1100;52.014;8.540;2023-04-25T01:57:56;99366.50;;;4.19;86.95
2188;BME280;1100;52.014;8.540;2023-04-25T02:00:22;99362.50;;;4.23;86.92
2188;BME280;1100;52.014;8.540;2023-04-25T02:02:48;99362.09;;;4.25;86.64
2188;BME280;1100;52.014;8.540;2023-04-25T02:05:16;99373.09;;;4.25;86.73
2188;BME280;1100;52.014;8.540;2023-04-25T02:07:41;99375.47;;;4.23;87.05
2188;BME280;1100;52.014;8.540;2023-04-25T02:10:07;99365.25;;;4.23;87.46
2188;BME280;1100;52.014;8.540;2023-04-25T02:12:32;99375.47;;;4.23;87.42
2188;BME280;1100;52.014;8.540;2023-04-25T02:14:57;99373.09;;;4.25;87.71
2188;BME280;1100;52.014;8.540;2023-04-25T02:17:23;99386.44;;;4.27;87.74
2188;BME280;1100;52.014;8.540;2023-04-25T02:19:48;99380.88;;;4.30;87.73
2188;BME280;1100;52.014;8.540;2023-04-25T02:22:14;99383.22;;;4.32;87.52
2188;BME280;1100;52.014;8.540;2023-04-25T02:24:39;99376.13;;;4.34;87.79
2188;BME280;1100;52.014;8.540;2023-04-25T02:27:05;99387.84;;;4.39;87.54
2188;BME280;1100;52.014;8.540;2023-04-25T02:29:31;99380.38;;;4.39;87.68
2188;BME280;1100;52.014;8.540;2023-04-25T02:31:56;99372.88;;;4.40;87.41
2188;BME280;1100;52.014;8.540;2023-04-25T02:34:21;99379.19;;;4.40;87.52
2188;BME280;1100;52.014;8.540;2023-04-25T02:36:48;99381.50;;;4.42;87.24
2188;BME280;1100;52.014;8.540;2023-04-25T02:39:16;99375.28;;;4.38;87.22
2188;BME280;1100;52.014;8.540;2023-04-25T02:41:41;99382.34;;;4.39;87.38
2188;BME280;1100;52.014;8.540;2023-04-25T02:44:07;99385.88;;;4.39;87.25
2188;BME280;1100;52.014;8.540;2023-04-25T02:46:32;99379.97;;;4.41;87.32
2188;BME280;1100;52.014;8.540;2023-04-25T02:48:57;99396.06;;;4.42;87.29
2188;BME280;1100;52.014;8.540;2023-04-25T02:51:23;99391.75;;;4.41;87.22
2188;BME280;1100;52.014;8.540;2023-04-25T02:53:48;99396.47;;;4.41;87.49
2188;BME280;1100;52.014;8.540;2023-04-25T02:56:13;99392.53;;;4.42;87.56
2188;BME280;1100;52.014;8.540;2023-04-25T02:58:38;99398.44;;;4.40;87.28
2188;BME280;1100;52.014;8.540;2023-04-25T03:01:04;99399.28;;;4.37;87.47
2188;BME280;1100;52.014;8.540;2023-04-25T03:03:29;99390.63;;;4.35;87.08
2188;BME280;1100;52.014;8.540;2023-04-25T03:05:54;99391.06;;;4.33;87.33
2188;BME280;1100;52.014;8.540;2023-04-25T03:08:20;99400.50;;;4.32;87.11
2188;BME280;1100;52.014;8.540;2023-04-25T03:10:45;99395.84;;;4.29;87.23
2188;BME280;1100;52.014;8.540;2023-04-25T03:13:11;99395.88;;;4.26;87.30
2188;BME280;1100;52.014;8.540;2023-04-25T03:15:37;99401.78;;;4.24;87.32
2188;BME280;1100;52.014;8.540;2023-04-25T03:18:03;99399.84;;;4.21;87.31
2188;BME280;1100;52.014;8.540;2023-04-25T03:20:28;99398.31;;;4.20;87.40
2188;BME280;1100;52.014;8.540;2023-04-25T03:22:54;99397.94;;;4.18;87.19
2188;BME280;1100;52.014;8.540;2023-04-25T03:25:19;99401.50;;;4.15;87.04
2188;BME280;1100;52.014;8.540;2023-04-25T03:27:45;99403.91;;;4.13;87.24
2188;BME280;1100;52.014;8.540;2023-04-25T03:30:10;99410.22;;;4.09;87.03
2188;BME280;1100;52.014;8.540;2023-04-25T03:32:36;99416.91;;;4.08;86.73
2188;BME280;1100;52.014;8.540;2023-04-25T03:35:02;99408.72;;;4.05;87.27
2188;BME280;1100;52.014;8.540;2023-04-25T03:37:28;99413.81;;;4.06;86.86
2188;BME280;1100;52.014;8.540;2023-04-25T03:39:53;99424.03;;;4.06;87.16
2188;BME280;1100;52.014;8.540;2023-04-25T03:42:18;99425.56;;;4.07;87.00
2188;BME280;1100;52.014;8.540;2023-04-25T03:44:45;99425.16;;;4.08;87.15
2188;BME280;1100;52.014;8.540;2023-04-25T03:47:10;99427.09;;;4.11;87.18
2188;BME280;1100;52.014;8.540;2023-04-25T03:49:35;99432.97;;;4.14;86.79
2188;BME280;1100;52.014;8.540;2023-04-25T03:52:02;99440.84;;;4.11;87.06
2188;BME280;1100;52.014;8.540;2023-04-25T03:54:27;99440.06;;;4.11;87.01
2188;BME280;1100;52.014;8.540;2023-04-25T03:56:52;99440.84;;;4.11;86.95
2188;BME280;1100;52.014;8.540;2023-04-25T03:59:18;99443.19;;;4.13;87.30
2188;BME280;1100;52.014;8.540;2023-04-25T04:01:43;99448.31;;;4.11;86.98
2188;BME280;1100;52.014;8.540;2023-04-25T04:04:08;99454.19;;;4.13;87.24
2188;BME280;1100;52.014;8.540;2023-04-25T04:06:34;99455.41;;;4.08;86.94
2188;BME280;1100;52.014;8.540;2023-04-25T04:09:00;99458.16;;;4.08;86.91
2188;BME280;1100;52.014;8.540;2023-04-25T04:11:25;99455.81;;;4.07;87.08
2188;BME280;1100;52.014;8.540;2023-04-25T04:13:51;99464.47;;;4.05;87.08
2188;BME280;1100;52.014;8.540;2023-04-25T04:16:16;99461.38;;;4.03;87.12
2188;BME280;1100;52.014;8.540;2023-04-25T04:18:41;99466.09;;;4.03;87.15
2188;BME280;1100;52.014;8.540;2023-04-25T04:21:06;99471.19;;;4.04;87.14
2188;BME280;1100;52.014;8.540;2023-04-25T04:23:32;99468.06;;;4.02;86.72
2188;BME280;1100;52.014;8.540;2023-04-25T04:25:57;99481.81;;;4.02;86.84
2188;BME280;1100;52.014;8.540;2023-04-25T04:28:22;99475.53;;;4.02;86.84
2188;BME280;1100;52.014;8.540;2023-04-25T04:30:48;99481.03;;;4.02;87.22
2188;BME280;1100;52.014;8.540;2023-04-25T04:33:16;99491.25;;;4.01;86.97
2188;BME280;1100;52.014;8.540;2023-04-25T04:35:44;99496.75;;;4.01;86.70
2188;BME280;1100;52.014;8.540;2023-04-25T04:38:09;99490.47;;;4.01;86.93
2188;BME280;1100;52.014;8.540;2023-04-25T04:40:36;99491.25;;;4.01;86.85
2188;BME280;1100;52.014;8.540;2023-04-25T04:43:02;99497.53;;;4.02;86.98
2188;BME280;1100;52.014;8.540;2023-04-25T04:45:28;99501.06;;;4.02;86.86
2188;BME280;1100;52.014;8.540;2023-04-25T04:47:53;99494.75;;;4.05;87.16
2188;BME280;1100;52.014;8.540;2023-04-25T04:50:20;99494.75;;;4.05;86.96
2188;BME280;1100;52.014;8.540;2023-04-25T04:52:46;99500.66;;;4.04;87.19
2188;BME280;1100;52.014;8.540;2023-04-25T04:55:11;99509.28;;;4.06;87.05
2188;BME280;1100;52.014;8.540;2023-04-25T04:57:36;99515.56;;;4.06;86.99
2188;BME280;1100;52.014;8.540;2023-04-25T05:00:04;99512.81;;;4.06;86.95
2188;BME280;1100;52.014;8.540;2023-04-25T05:02:30;99512.41;;;4.08;86.75
2188;BME280;1100;52.014;8.540;2023-04-25T05:04:56;99512.00;;;4.09;87.07
2188;BME280;1100;52.014;8.540;2023-04-25T05:07:21;99521.78;;;4.14;86.90
2188;BME280;1100;52.014;8.540;2023-04-25T05:09:46;99520.97;;;4.17;86.87
2188;BME280;1100;52.014;8.540;2023-04-25T05:12:12;99522.50;;;4.18;86.43
2188;BME280;1100;52.014;8.540;2023-04-25T05:14:37;99537.00;;;4.22;86.98
2188;BME280;1100;52.014;8.540;2023-04-25T05:17:03;99529.53;;;4.23;86.64
2188;BME280;1100;52.014;8.540;2023-04-25T05:19:32;99528.34;;;4.24;86.44
2188;BME280;1100;52.014;8.540;2023-04-25T05:21:57;99531.47;;;4.26;86.61
2188;BME280;1100;52.014;8.540;2023-04-25T05:24:22;99532.25;;;4.27;86.77
2188;BME280;1100;52.014;8.540;2023-04-25T05:26:48;99538.13;;;4.29;86.65
2188;BME280;1100;52.014;8.540;2023-04-25T05:29:13;99546.75;;;4.31;86.64
2188;BME280;1100;52.014;8.540;2023-04-25T05:31:38;99544.31;;;4.36;86.66
2188;BME280;1100;52.014;8.540;2023-04-25T05:34:03;99551.00;;;4.39;86.63
2188;BME280;1100;52.014;8.540;2023-04-25T05:36:29;99554.91;;;4.42;86.36
2188;BME280;1100;52.014;8.540;2023-04-25T05:38:56;99551.31;;;4.45;86.42
2188;BME280;1100;52.014;8.540;2023-04-25T05:41:24;99553.66;;;4.46;86.43
2188;BME280;1100;52.014;8.540;2023-04-25T05:43:49;99554.81;;;4.49;86.53
2188;BME280;1100;52.014;8.540;2023-04-25T05:46:15;99555.97;;;4.52;86.43
2188;BME280;1100;52.014;8.540;2023-04-25T05:48:43;99552.81;;;4.53;86.03
2188;BME280;1100;52.014;8.540;2023-04-25T05:51:09;99561.06;;;4.53;85.93
2188;BME280;1100;52.014;8.540;2023-04-25T05:53:35;99573.22;;;4.56;86.09
2188;BME280;1100;52.014;8.540;2023-04-25T05:56:00;99567.69;;;4.59;86.27
2188;BME280;1100;52.014;8.540;2023-04-25T05:58:26;99573.13;;;4.63;85.98
2188;BME280;1100;52.014;8.540;2023-04-25T06:00:51;99577.81;;;4.66;86.15
2188;BME280;1100;52.014;8.540;2023-04-25T06:03:17;99574.25;;;4.69;86.20
2188;BME280;1100;52.014;8.540;2023-04-25T06:05:42;99575.41;;;4.72;86.12
2188;BME280;1100;52.014;8.540;2023-04-25T06:08:08;99578.50;;;4.74;86.09
2188;BME280;1100;52.014;8.540;2023-04-25T06:10:33;99585.94;;;4.77;85.96
2188;BME280;1100;52.014;8.540;2023-04-25T06:12:59;99597.34;;;4.79;86.09
2188;BME280;1100;52.014;8.540;2023-04-25T06:15:24;99587.06;;;4.83;85.94
2188;BME280;1100;52.014;8.540;2023-04-25T06:17:50;99586.25;;;4.86;85.52
2188;BME280;1100;52.014;8.540;2023-04-25T06:20:15;99590.97;;;4.86;85.34
2188;BME280;1100;52.014;8.540;2023-04-25T06:22:41;99588.22;;;4.86;85.49
2188;BME280;1100;52.014;8.540;2023-04-25T06:25:06;99594.88;;;4.89;85.39
2188;BME280;1100;52.014;8.540;2023-04-25T06:27:32;99600.34;;;4.92;85.76
2188;BME280;1100;52.014;8.540;2023-04-25T06:29:58;99592.81;;;4.96;85.66
2188;BME280;1100;52.014;8.540;2023-04-25T06:32:23;99607.69;;;5.03;85.63
2188;BME280;1100;52.014;8.540;2023-04-25T06:34:48;99607.66;;;5.06;85.54
2188;BME280;1100;52.014;8.540;2023-04-25T06:37:14;99604.53;;;5.04;85.45
2188;BME280;1100;52.014;8.540;2023-04-25T06:39:39;99610.84;;;5.01;85.31
2188;BME280;1100;52.014;8.540;2023-04-25T06:42:04;99612.06;;;5.00;85.10
2188;BME280;1100;52.014;8.540;2023-04-25T06:44:30;99612.78;;;5.04;85.24
2188;BME280;1100;52.014;8.540;2023-04-25T06:46:55;99620.22;;;5.07;85.67
2188;BME280;1100;52.014;8.540;2023-04-25T06:49:21;99614.69;;;5.11;85.17
2188;BME280;1100;52.014;8.540;2023-04-25T06:51:47;99615.81;;;5.14;85.25
2188;BME280;1100;52.014;8.540;2023-04-25T06:54:12;99614.19;;;5.16;85.22
2188;BME280;1100;52.014;8.540;2023-04-25T06:56:37;99625.19;;;5.20;84.79
2188;BME280;1100;52.014;8.540;2023-04-25T06:59:02;99622.81;;;5.22;84.75
2188;BME280;1100;52.014;8.540;2023-04-25T07:01:28;99626.72;;;5.24;84.70
2188;BME280;1100;52.014;8.540;2023-04-25T07:03:53;99630.19;;;5.29;84.69
2188;BME280;1100;52.014;8.540;2023-04-25T07:06:18;99636.03;;;5.34;84.49
2188;BME280;1100;52.014;8.540;2023-04-25T07:08:44;99631.94;;;5.46;84.49
2188;BME280;1100;52.014;8.540;2023-04-25T07:11:09;99629.13;;;5.50;84.26
2188;BME280;1100;52.014;8.540;2023-04-25T07:13:34;99636.56;;;5.53;84.08
2188;BME280;1100;52.014;8.540;2023-04-25T07:16:00;99647.19;;;5.55;83.96
2188;BME280;1100;52.014;8.540;2023-04-25T07:18:25;99644.06;;;5.53;83.83
2188;BME280;1100;52.014;8.540;2023-04-25T07:20:51;99644.81;;;5.57;83.91
2188;BME280;1100;52.014;8.540;2023-04-25T07:23:16;99644.28;;;5.66;83.82
2188;BME280;1100;52.014;8.540;2023-04-25T07:25:42;99642.22;;;5.70;83.95
2188;BME280;1100;52.014;8.540;2023-04-25T07:28:07;99648.06;;;5.76;83.69
2188;BME280;1100;52.014;8.540;2023-04-25T07:30:32;99654.72;;;5.78;83.18
2188;BME280;1100;52.014;8.540;2023-04-25T07:32:59;99653.84;;;5.85;83.22
2188;BME280;1100;52.014;8.540;2023-04-25T07:35:25;99654.53;;;5.93;83.56
2188;BME280;1100;52.014;8.540;2023-04-25T07:37:50;99652.38;;;6.04;83.71
2188;BME280;1100;52.014;8.540;2023-04-25T07:40:16;99653.00;;;6.16;83.46
2188;BME280;1100;52.014;8.540;2023-04-25T07:42:41;99661.53;;;6.25;83.12
2188;BME280;1100;52.014;8.540;2023-04-25T07:45:07;99664.16;;;6.32;82.68
2188;BME280;1100;52.014;8.540;2023-04-25T07:47:32;99665.50;;;6.24;82.41
2188;BME280;1100;52.014;8.540;2023-04-25T07:49:58;99667.03;;;6.25;82.62
2188;BME280;1100;52.014;8.540;2023-04-25T07:52:23;99671.09;;;6.17;81.78
2188;BME280;1100;52.014;8.540;2023-04-25T07:54:48;99671.91;;;6.17;81.95
2188;BME280;1100;52.014;8.540;2023-04-25T07:57:14;99662.84;;;6.17;82.00
2188;BME280;1100;52.014;8.540;2023-04-25T07:59:39;99667.84;;;6.26;82.16
2188;BME280;1100;52.014;8.540;2023-04-25T08:02:05;99677.00;;;6.43;81.64
2188;BME280;1100;52.014;8.540;2023-04-25T08:04:30;99676.31;;;6.59;81.58
2188;BME280;1100;52.014;8.540;2023-04-25T08:06:56;99677.00;;;6.67;80.68
2188;BME280;1100;52.014;8.540;2023-04-25T08:09:21;99681.72;;;6.66;79.65
2188;BME280;1100;52.014;8.540;2023-04-25T08:11:47;99682.81;;;6.72;79.67
2188;BME280;1100;52.014;8.540;2023-04-25T08:14:13;99687.00;;;6.81;79.25
2188;BME280;1100;52.014;8.540;2023-04-25T08:16:39;99692.44;;;6.84;79.65
2188;BME280;1100;52.014;8.540;2023-04-25T08:19:04;99697.34;;;6.97;79.46
2188;BME280;1100;52.014;8.540;2023-04-25T08:21:30;99694.09;;;7.02;78.96
2188;BME280;1100;52.014;8.540;2023-04-25T08:23:56;99697.22;;;7.04;78.96
2188;BME280;1100;52.014;8.540;2023-04-25T08:26:23;99700.34;;;7.06;78.96
2188;BME280;1100;52.014;8.540;2023-04-25T08:28:49;99709.25;;;7.14;78.81
2188;BME280;1100;52.014;8.540;2023-04-25T08:31:14;99712.66;;;7.22;78.67
2188;BME280;1100;52.014;8.540;2023-04-25T08:33:40;99716.00;;;7.33;78.88
2188;BME280;1100;52.014;8.540;2023-04-25T08:36:05;99722.59;;;7.40;78.59
2188;BME280;1100;52.014;8.540;2023-04-25T08:38:30;99721.91;;;7.35;77.77
2188;BME280;1100;52.014;8.540;2023-04-25T08:40:57;99729.25;;;7.22;77.28
2188;BME280;1100;52.014;8.540;2023-04-25T08:43:24;99731.09;;;7.08;76.21
2188;BME280;1100;52.014;8.540;2023-04-25T08:45:52;99730.41;;;7.04;76.01
2188;BME280;1100;52.014;8.540;2023-04-25T08:48:18;99726.56;;;7.18;76.50
2188;BME280;1100;52.014;8.540;2023-04-25T08:50:52;99734.94;;;7.35;76.65
2188;BME280;1100;52.014;8.540;2023-04-25T08:53:21;99737.47;;;7.46;75.56
2188;BME280;1100;52.014;8.540;2023-04-25T08:55:48;99753.41;;;7.79;75.23
2188;BME280;1100;52.014;8.540;2023-04-25T08:58:15;99747.25;;;8.08;73.90
2188;BME280;1100;52.014;8.540;2023-04-25T09:00:40;99757.53;;;8.07;72.32
2188;BME280;1100;52.014;8.540;2023-04-25T09:03:05;99757.59;;;8.41;70.81
2188;BME280;1100;52.014;8.540;2023-04-25T09:05:33;99756.72;;;8.44;69.73
2188;BME280;1100;52.014;8.540;2023-04-25T09:07:58;99759.47;;;8.27;69.59
2188;BME280;1100;52.014;8.540;2023-04-25T09:10:23;99744.56;;;8.04;68.61
2188;BME280;1100;52.014;8.540;2023-04-25T09:13:26;99761.56;;;7.66;69.25
2188;BME280;1100;52.014;8.540;2023-04-25T09:15:53;99762.22;;;7.53;69.99
2188;BME280;1100;52.014;8.540;2023-04-25T09:18:27;99772.75;;;7.42;70.16
2188;BME280;1100;52.014;8.540;2023-04-25T09:20:54;99776.78;;;7.57;67.75
2188;BME280;1100;52.014;8.540;2023-04-25T09:23:21;99789.81;;;7.77;69.10
2188;BME280;1100;52.014;8.540;2023-04-25T09:25:53;99785.97;;;7.91;68.96
2188;BME280;1100;52.014;8.540;2023-04-25T09:28:25;99785.41;;;8.17;70.04
2188;BME280;1100;52.014;8.540;2023-04-25T09:30:55;99784.41;;;8.44;69.77
2188;BME280;1100;52.014;8.540;2023-04-25T09:33:27;99783.19;;;8.45;68.86
2188;BME280;1100;52.014;8.540;2023-04-25T09:35:52;99790.97;;;8.33;69.10
2188;BME280;1100;52.014;8.540;2023-04-25T09:38:20;99785.25;;;8.24;68.42
2188;BME280;1100;52.014;8.540;2023-04-25T09:40:48;99788.28;;;7.93;66.95
2188;BME280;1100;52.014;8.540;2023-04-25T09:43:24;99789.03;;;7.77;67.74
2188;BME280;1100;52.014;8.540;2023-04-25T09:45:54;99806.19;;;7.68;67.52
2188;BME280;1100;52.014;8.540;2023-04-25T09:48:23;99799.75;;;7.34;66.91
2188;BME280;1100;52.014;8.540;2023-04-25T09:51:13;99808.53;;;7.05;67.25
2188;BME280;1100;52.014;8.540;2023-04-25T09:53:41;99796.19;;;6.89;67.20
2188;BME280;1100;52.014;8.540;2023-04-25T09:56:08;99796.25;;;6.85;67.47
2188;BME280;1100;52.014;8.540;2023-04-25T09:58:35;99806.09;;;6.87;67.96
2188;BME280;1100;52.014;8.540;2023-04-25T10:01:05;99803.88;;;6.78;66.16
2188;BME280;1100;52.014;8.540;2023-04-25T10:03:36;99813.53;;;6.66;67.02
2188;BME280;1100;52.014;8.540;2023-04-25T10:06:03;99809.25;;;6.61;67.79
2188;BME280;1100;52.014;8.540;2023-04-25T10:08:35;99812.06;;;6.57;67.81
2188;BME280;1100;52.014;8.540;2023-04-25T10:11:03;99822.41;;;6.53;67.70
2188;BME280;1100;52.014;8.540;2023-04-25T10:13:33;99824.03;;;6.51;67.74
2188;BME280;1100;52.014;8.540;2023-04-25T10:16:00;99824.44;;;6.49;68.41
2188;BME280;1100;52.014;8.540;2023-04-25T10:18:26;99831.97;;;6.45;67.98
2188;BME280;1100;52.014;8.540;2023-04-25T10:20:59;99831.00;;;6.31;67.56
2188;BME280;1100;52.014;8.540;2023-04-25T10:23:25;99837.50;;;6.17;68.02
2188;BME280;1100;52.014;8.540;2023-04-25T10:25:52;99840.78;;;6.08;68.09
2188;BME280;1100;52.014;8.540;2023-04-25T10:28:18;99842.41;;;6.02;68.11
2188;BME280;1100;52.014;8.540;2023-04-25T10:30:57;99843.97;;;6.03;68.55
2188;BME280;1100;52.014;8.540;2023-04-25T10:33:32;99843.16;;;6.06;68.73
2188;BME280;1100;52.014;8.540;2023-04-25T10:35:58;99843.84;;;6.14;69.00
2188;BME280;1100;52.014;8.540;2023-04-25T10:38:25;99844.06;;;6.27;68.94
2188;BME280;1100;52.014;8.540;2023-04-25T10:41:18;99852.41;;;6.51;69.22
2188;BME280;1100;52.014;8.540;2023-04-25T10:43:45;99840.19;;;6.52;67.63
2188;BME280;1100;52.014;8.540;2023-04-25T10:48:51;99843.03;;;6.72;67.78
2188;BME280;1100;52.014;8.540;2023-04-25T10:54:06;99841.09;;;8.02;67.37
2188;BME280;1100;52.014;8.540;2023-04-25T10:56:41;99845.06;;;8.92;66.95
2188;BME280;1100;52.014;8.540;2023-04-25T10:59:12;99841.97;;;10.08;66.20
2188;BME280;1100;52.014;8.540;2023-04-25T11:01:42;99849.34;;;10.80;63.94
2188;BME280;1100;52.014;8.540;2023-04-25T11:04:29;99845.41;;;10.13;62.68
2188;BME280;1100;52.014;8.540;2023-04-25T11:07:19;99833.22;;;9.21;61.99
2188;BME280;1100;52.014;8.540;2023-04-25T11:09:48;99836.72;;;8.58;63.67
2188;BME280;1100;52.014;8.540;2023-04-25T11:12:14;99848.94;;;8.24;64.17
2188;BME280;1100;52.014;8.540;2023-04-25T11:14:40;99849.47;;;7.98;63.17
2188;BME280;1100;52.014;8.540;2023-04-25T11:17:06;99855.84;;;7.75;63.84
2188;BME280;1100;52.014;8.540;2023-04-25T11:19:31;99844.00;;;7.54;63.86
2188;BME280;1100;52.014;8.540;2023-04-25T11:21:58;99846.56;;;7.45;64.32
2188;BME280;1100;52.014;8.540;2023-04-25T11:24:29;99847.41;;;7.42;64.40
2188;BME280;1100;52.014;8.540;2023-04-25T11:26:54;99852.00;;;7.48;64.38
2188;BME280;1100;52.014;8.540;2023-04-25T11:29:26;99852.16;;;7.62;64.24
2188;BME280;1100;52.014;8.540;2023-04-25T11:31:52;99853.81;;;7.79;64.29
2188;BME280;1100;52.014;8.540;2023-04-25T11:34:18;99851.25;;;7.89;63.29
2188;BME280;1100;52.014;8.540;2023-04-25T11:36:45;99850.13;;;8.06;63.84
2188;BME280;1100;52.014;8.540;2023-04-25T11:39:11;99850.13;;;8.06;64.14
2188;BME280;1100;52.014;8.540;2023-04-25T11:41:41;99851.94;;;7.93;64.41
2188;BME280;1100;52.014;8.540;2023-04-25T11:44:06;99859.97;;;7.67;64.13
2188;BME280;1100;52.014;8.540;2023-04-25T11:46:35;99868.75;;;7.41;65.02
2188;BME280;1100;52.014;8.540;2023-04-25T11:49:00;99873.84;;;7.19;64.86
2188;BME280;1100;52.014;8.540;2023-04-25T11:51:26;99878.84;;;7.04;65.18
2188;BME280;1100;52.014;8.540;2023-04-25T11:53:52;99881.84;;;6.89;65.45
2188;BME280;1100;52.014;8.540;2023-04-25T11:56:17;99883.22;;;6.77;65.63
2188;BME280;1100;52.014;8.540;2023-04-25T12:01:26;99896.69;;;6.44;66.26
2188;BME280;1100;52.014;8.540;2023-04-25T12:03:52;99896.38;;;6.38;66.61
2188;BME280;1100;52.014;8.540;2023-04-25T12:06:17;99897.25;;;6.31;67.11
2188;BME280;1100;52.014;8.540;2023-04-25T12:09:02;99894.06;;;6.33;67.59
2188;BME280;1100;52.014;8.540;2023-04-25T12:11:30;99905.75;;;6.44;67.77
2188;BME280;1100;52.014;8.540;2023-04-25T12:13:55;99903.88;;;6.65;67.82
2188;BME280;1100;52.014;8.540;2023-04-25T12:16:21;99900.41;;;6.89;67.82
2188;BME280;1100;52.014;8.540;2023-04-25T12:18:46;99902.09;;;7.06;67.53
2188;BME280;1100;52.014;8.540;2023-04-25T12:21:11;99899.75;;;7.29;66.96
2188;BME280;1100;52.014;8.540;2023-04-25T12:23:38;99899.88;;;7.45;66.98
2188;BME280;1100;52.014;8.540;2023-04-25T12:26:04;99900.19;;;7.51;66.92
2188;BME280;1100;52.014;8.540;2023-04-25T12:28:32;99910.25;;;7.62;66.68
2188;BME280;1100;52.014;8.540;2023-04-25T12:31:01;99916.50;;;7.66;66.15
2188;BME280;1100;52.014;8.540;2023-04-25T12:33:30;99904.03;;;7.57;65.26
2188;BME280;1100;52.014;8.540;2023-04-25T12:35:56;99900.03;;;7.58;66.08
2188;BME280;1100;52.014;8.540;2023-04-25T12:38:27;99901.75;;;7.72;66.19
2188;BME280;1100;52.014;8.540;2023-04-25T12:40:55;99893.63;;;7.85;65.55
2188;BME280;1100;52.014;8.540;2023-04-25T12:43:20;99900.69;;;8.27;65.89
2188;BME280;1100;52.014;8.540;2023-04-25T12:45:52;99902.22;;;8.85;65.63
2188;BME280;1100;52.014;8.540;2023-04-25T12:48:18;99896.66;;;9.35;65.38
2188;BME280;1100;52.014;8.540;2023-04-25T12:50:44;99899.00;;;9.83;65.13
2188;BME280;1100;52.014;8.540;2023-04-25T12:53:12;99894.66;;;10.25;63.97
2188;BME280;1100;52.014;8.540;2023-04-25T12:55:37;99898.03;;;10.72;64.27
2188;BME280;1100;52.014;8.540;2023-04-25T12:58:03;99888.66;;;11.05;62.64
2188;BME280;1100;52.014;8.540;2023-04-25T13:00:29;99883.59;;;10.77;62.07
2188;BME280;1100;52.014;8.540;2023-04-25T13:02:54;99887.09;;;10.39;60.84
2188;BME280;1100;52.014;8.540;2023-04-25T13:05:21;99889.63;;;10.20;60.55
2188;BME280;1100;52.014;8.540;2023-04-25T13:07:46;99894.41;;;9.77;58.92
2188;BME280;1100;52.014;8.540;2023-04-25T13:10:11;99892.94;;;9.42;60.36
2188;BME280;1100;52.014;8.540;2023-04-25T13:12:37;99893.72;;;9.26;60.67
2188;BME280;1100;52.014;8.540;2023-04-25T13:15:02;99902.41;;;8.95;60.82
2188;BME280;1100;52.014;8.540;2023-04-25T13:17:28;99906.03;;;8.75;61.22
2188;BME280;1100;52.014;8.540;2023-04-25T13:19:53;99923.25;;;8.46;59.91
2188;BME280;1100;52.014;8.540;2023-04-25T13:22:18;99939.97;;;8.02;60.48
2188;BME280;1100;52.014;8.540;2023-04-25T13:24:45;99949.97;;;7.51;61.28
2188;BME280;1100;52.014;8.540;2023-04-25T13:27:10;99960.38;;;6.92;62.68
2188;BME280;1100;52.014;8.540;2023-04-25T13:29:36;99954.84;;;6.29;63.92
2188;BME280;1100;52.014;8.540;2023-04-25T13:32:03;99954.56;;;5.81;64.60
2188;BME280;1100;52.014;8.540;2023-04-25T13:34:29;99962.41;;;5.41;65.54
2188;BME280;1100;52.014;8.540;2023-04-25T13:36:55;99950.38;;;5.16;66.38